createdAt,value
2023-05-13T00:00:16.155Z,8.40
2023-05-13T00:02:20.161Z,8.77
2023-05-13T00:04:24.654Z,8.23
2023-05-13T00:06:27.706Z,8.57
2023-05-13T00:08:30.687Z,8.67
2023-05-13T00:10:33.906Z,8.40
2023-05-13T00:12:37.189Z,7.73
2023-05-13T00:14:40.247Z,7.80
2023-05-13T00:16:43.645Z,7.97
2023-05-13T00:18:46.866Z,8.30
2023-05-13T00:20:51.730Z,7.70
2023-05-13T00:22:54.751Z,7.87
2023-05-13T00:24:57.703Z,9.20
2023-05-13T00:27:00.725Z,8.60
2023-05-13T00:29:03.832Z,8.50
2023-05-13T00:31:06.810Z,7.90
2023-05-13T00:33:09.715Z,8.40
2023-05-13T00:35:12.769Z,7.83
2023-05-13T00:37:17.254Z,8.20
2023-05-13T00:39:20.368Z,7.20
2023-05-13T00:41:23.815Z,7.50
2023-05-13T00:43:26.896Z,8.40
2023-05-13T00:45:29.920Z,7.90
2023-05-13T00:47:34.240Z,7.30
2023-05-13T00:49:37.951Z,8.00
2023-05-13T00:51:41.087Z,8.80
2023-05-13T00:53:45.847Z,7.50
2023-05-13T00:55:49.106Z,7.10
2023-05-13T00:57:52.474Z,8.70
2023-05-13T00:59:56.055Z,8.47
2023-05-13T01:02:05.476Z,8.50
2023-05-13T01:04:16.780Z,7.80
2023-05-13T01:06:27.379Z,8.80
2023-05-13T01:08:35.232Z,8.20
2023-05-13T01:10:46.299Z,6.90
2023-05-13T01:12:50.579Z,7.33
2023-05-13T01:14:56.059Z,7.27
2023-05-13T01:17:02.761Z,8.00
2023-05-13T01:19:09.084Z,7.80
2023-05-13T01:21:12.908Z,8.17
2023-05-13T01:23:17.327Z,7.30
2023-05-13T01:25:20.672Z,7.40
2023-05-13T01:27:23.792Z,7.50
2023-05-13T01:29:28.428Z,7.50
2023-05-13T01:31:31.816Z,7.80
2023-05-13T01:33:35.388Z,7.47
2023-05-13T01:35:38.566Z,8.10
2023-05-13T01:37:42.153Z,7.97
2023-05-13T01:39:46.697Z,7.90
2023-05-13T01:41:51.559Z,7.93
2023-05-13T01:43:54.589Z,8.30
2023-05-13T01:46:00.442Z,7.33
2023-05-13T01:48:03.717Z,8.37
2023-05-13T01:50:17.727Z,7.43
2023-05-13T01:52:20.927Z,8.27
2023-05-13T01:54:25.746Z,9.00
2023-05-13T01:56:34.646Z,8.00
2023-05-13T01:58:38.749Z,7.60
2023-05-13T02:00:41.875Z,7.83
2023-05-13T02:02:45.119Z,7.37
2023-05-13T02:04:48.044Z,8.13
2023-05-13T02:06:51.104Z,8.00
2023-05-13T02:08:54.640Z,7.67
2023-05-13T02:10:57.714Z,7.40
2023-05-13T02:13:02.001Z,7.40
2023-05-13T02:15:05.597Z,6.87
2023-05-13T02:17:08.487Z,8.20
2023-05-13T02:19:11.411Z,8.37
2023-05-13T02:21:14.445Z,7.97
2023-05-13T02:23:17.745Z,8.53
2023-05-13T02:25:20.989Z,7.87
2023-05-13T02:27:24.155Z,7.33
2023-05-13T02:29:28.581Z,7.73
2023-05-13T02:31:31.951Z,7.37
2023-05-13T02:33:34.876Z,8.20
2023-05-13T02:35:37.800Z,7.77
2023-05-13T02:37:41.459Z,7.50
2023-05-13T02:39:46.443Z,8.17
2023-05-13T02:41:50.241Z,7.30
2023-05-13T02:43:53.423Z,6.77
2023-05-13T02:45:57.912Z,7.80
2023-05-13T02:48:01.049Z,8.10
2023-05-13T02:50:06.323Z,7.07
2023-05-13T02:52:09.473Z,7.40
2023-05-13T02:54:13.437Z,8.80
2023-05-13T02:56:16.971Z,8.50
2023-05-13T02:58:19.990Z,8.00
2023-05-13T03:00:24.344Z,7.40
2023-05-13T03:02:29.604Z,8.13
2023-05-13T03:04:32.685Z,7.90
2023-05-13T03:06:35.576Z,7.23
2023-05-13T03:08:38.556Z,7.33
2023-05-13T03:10:41.454Z,8.10
2023-05-13T03:12:44.524Z,8.10
2023-05-13T03:14:47.729Z,7.73
2023-05-13T03:16:51.175Z,7.70
2023-05-13T03:18:55.569Z,7.03
2023-05-13T03:20:58.703Z,7.70
2023-05-13T03:23:02.427Z,7.70
2023-05-13T03:25:07.303Z,8.50
2023-05-13T03:27:18.386Z,9.03
2023-05-13T03:29:21.375Z,8.90
2023-05-13T03:31:24.674Z,8.30
2023-05-13T03:33:29.728Z,7.37
2023-05-13T03:35:34.509Z,8.33
2023-05-13T03:37:37.709Z,7.77
2023-05-13T03:39:41.923Z,7.20
2023-05-13T03:41:45.861Z,7.50
2023-05-13T03:43:49.075Z,8.30
2023-05-13T03:45:52.219Z,8.83
2023-05-13T03:47:57.643Z,8.37
2023-05-13T03:50:01.723Z,8.57
2023-05-13T03:52:10.333Z,8.13
2023-05-13T03:54:13.445Z,9.20
2023-05-13T03:56:16.745Z,8.43
2023-05-13T03:58:22.887Z,8.97
2023-05-13T04:00:25.970Z,8.83
2023-05-13T04:02:29.026Z,8.13
2023-05-13T04:04:32.052Z,7.40
2023-05-13T04:06:35.061Z,7.60
2023-05-13T04:08:40.737Z,7.40
2023-05-13T04:10:43.697Z,9.00
2023-05-13T04:12:46.786Z,8.23
2023-05-13T04:14:49.774Z,8.37
2023-05-13T04:16:52.757Z,8.13
2023-05-13T04:18:55.924Z,8.07
2023-05-13T04:20:58.819Z,8.83
2023-05-13T04:23:01.924Z,8.20
2023-05-13T04:25:07.871Z,8.20
2023-05-13T04:27:10.825Z,8.80
2023-05-13T04:29:14.880Z,8.83
2023-05-13T04:31:18.238Z,9.03
2023-05-13T04:33:21.553Z,8.07
2023-05-13T04:35:26.080Z,9.57
2023-05-13T04:37:33.569Z,8.10
2023-05-13T04:39:41.640Z,9.20
2023-05-13T04:41:46.550Z,9.50
2023-05-13T04:43:50.041Z,9.37
2023-05-13T04:45:52.978Z,10.60
2023-05-13T04:47:58.303Z,9.00
2023-05-13T04:50:01.692Z,9.33
2023-05-13T04:52:07.883Z,9.47
2023-05-13T04:54:11.744Z,10.20
2023-05-13T04:56:16.390Z,11.23
2023-05-13T04:58:21.016Z,11.03
2023-05-13T05:00:24.843Z,8.90
2023-05-13T05:02:30.255Z,10.20
2023-05-13T05:04:33.563Z,9.83
2023-05-13T05:06:38.559Z,9.50
2023-05-13T05:08:41.545Z,10.60
2023-05-13T05:10:47.355Z,9.70
2023-05-13T05:12:52.074Z,10.20
2023-05-13T05:14:58.677Z,9.50
2023-05-13T05:17:02.837Z,9.70
2023-05-13T05:19:06.505Z,8.80
2023-05-13T05:21:09.778Z,9.10
2023-05-13T05:23:13.370Z,8.67
2023-05-13T05:25:16.277Z,9.00
2023-05-13T05:27:19.855Z,9.10
2023-05-13T05:29:22.877Z,8.33
2023-05-13T05:31:28.615Z,9.20
2023-05-13T05:33:34.612Z,8.90
2023-05-13T05:35:38.440Z,8.13
2023-05-13T05:37:43.973Z,7.90
2023-05-13T05:39:47.343Z,8.70
2023-05-13T05:41:50.378Z,9.27
2023-05-13T05:43:53.747Z,9.20
2023-05-13T05:45:56.913Z,8.30
2023-05-13T05:48:01.932Z,8.57
2023-05-13T05:50:05.371Z,7.73
2023-05-13T05:52:11.018Z,9.13
2023-05-13T05:54:14.286Z,9.90
2023-05-13T05:56:17.329Z,8.40
2023-05-13T05:58:21.765Z,8.60
2023-05-13T06:00:25.591Z,8.20
2023-05-13T06:02:31.108Z,7.97
2023-05-13T06:04:35.867Z,7.50
2023-05-13T06:06:39.550Z,5.97
2023-05-13T06:08:42.645Z,5.70
2023-05-13T06:10:45.780Z,6.78
2023-05-13T06:12:51.167Z,6.75
2023-05-13T06:14:54.189Z,6.82
2023-05-13T06:16:57.189Z,6.72
2023-05-13T06:19:00.268Z,6.97
2023-05-13T06:21:04.880Z,6.55
2023-05-13T06:23:07.922Z,7.07
2023-05-13T06:25:11.552Z,6.65
2023-05-13T06:27:17.027Z,6.43
2023-05-13T06:29:20.015Z,6.72
2023-05-13T06:31:23.156Z,6.60
2023-05-13T06:33:26.312Z,6.43
2023-05-13T06:35:29.468Z,7.40
2023-05-13T06:37:34.610Z,7.57
2023-05-13T06:39:37.699Z,5.95
2023-05-13T06:41:40.914Z,7.38
2023-05-13T06:43:48.931Z,6.20
2023-05-13T06:45:59.785Z,6.20
2023-05-13T06:48:04.550Z,5.40
2023-05-13T06:50:08.349Z,6.80
2023-05-13T06:52:12.541Z,5.43
2023-05-13T06:54:17.099Z,6.35
2023-05-13T06:56:20.499Z,5.20
2023-05-13T06:58:25.484Z,5.45
2023-05-13T07:00:28.356Z,5.90
2023-05-13T07:02:31.374Z,6.03
2023-05-13T07:04:34.565Z,5.22
2023-05-13T07:06:37.883Z,6.78
2023-05-13T07:08:40.886Z,5.78
2023-05-13T07:10:47.609Z,5.75
2023-05-13T07:12:50.536Z,5.07
2023-05-13T07:14:53.460Z,5.38
2023-05-13T07:16:58.712Z,5.57
2023-05-13T07:19:01.778Z,5.78
2023-05-13T07:21:05.045Z,5.80
2023-05-13T07:23:08.026Z,5.78
2023-05-13T07:25:11.470Z,6.72
2023-05-13T07:27:15.814Z,6.05
2023-05-13T07:29:18.740Z,5.50
2023-05-13T07:31:21.942Z,6.15
2023-05-13T07:33:25.844Z,5.50
2023-05-13T07:35:29.422Z,4.93
2023-05-13T07:37:32.636Z,4.80
2023-05-13T07:39:35.625Z,5.15
2023-05-13T07:41:38.910Z,5.30
2023-05-13T07:43:43.362Z,5.43
2023-05-13T07:45:46.345Z,5.43
2023-05-13T07:47:49.292Z,5.38
2023-05-13T07:49:52.236Z,5.07
2023-05-13T07:51:55.107Z,4.70
2023-05-13T07:53:58.465Z,4.38
2023-05-13T07:56:01.394Z,4.15
2023-05-13T07:58:04.429Z,5.50
2023-05-13T08:00:11.069Z,4.93
2023-05-13T08:02:16.845Z,4.65
2023-05-13T08:04:20.339Z,4.57
2023-05-13T08:06:23.376Z,4.80
2023-05-13T08:08:26.470Z,7.00
2023-05-13T08:10:29.728Z,4.78
2023-05-13T08:12:33.033Z,5.80
2023-05-13T08:14:37.532Z,5.15
2023-05-13T08:16:42.204Z,5.30
2023-05-13T08:18:45.366Z,5.60
2023-05-13T08:20:48.295Z,5.03
2023-05-13T08:22:51.294Z,5.40
2023-05-13T08:24:54.936Z,4.40
2023-05-13T08:26:57.845Z,4.10
2023-05-13T08:29:00.855Z,4.28
2023-05-13T08:31:03.871Z,6.10
2023-05-13T08:33:08.429Z,4.70
2023-05-13T08:35:11.509Z,4.90
2023-05-13T08:37:14.437Z,4.28
2023-05-13T08:39:17.375Z,4.80
2023-05-13T08:41:21.984Z,4.57
2023-05-13T08:43:25.649Z,5.03
2023-05-13T08:45:30.540Z,4.32
2023-05-13T08:47:41.508Z,5.10
2023-05-13T08:49:47.269Z,5.15
2023-05-13T08:51:50.335Z,5.05
2023-05-13T08:53:55.051Z,4.40
2023-05-13T08:55:58.643Z,5.28
2023-05-13T08:58:01.823Z,4.95
2023-05-13T09:00:06.375Z,4.47
2023-05-13T09:02:13.993Z,5.20
2023-05-13T09:04:18.145Z,5.25
2023-05-13T09:06:22.407Z,5.43
2023-05-13T09:08:27.555Z,5.93
2023-05-13T09:10:31.007Z,5.55
2023-05-13T09:12:45.192Z,4.85
2023-05-13T09:14:48.644Z,5.55
2023-05-13T09:16:52.729Z,4.57
2023-05-13T09:19:00.240Z,4.40
2023-05-13T09:21:25.922Z,4.40
2023-05-13T09:23:29.397Z,4.00
2023-05-13T09:25:32.659Z,4.55
2023-05-13T09:27:39.563Z,4.95
2023-05-13T09:29:42.592Z,3.63
2023-05-13T09:31:46.429Z,3.40
2023-05-13T09:33:54.066Z,4.45
2023-05-13T09:35:57.499Z,4.00
2023-05-13T09:38:04.129Z,4.30
2023-05-13T09:40:08.642Z,4.65
2023-05-13T09:42:16.687Z,4.28
2023-05-13T09:44:19.768Z,4.07
2023-05-13T09:46:23.453Z,3.78
2023-05-13T09:48:28.066Z,3.65
2023-05-13T09:50:48.272Z,3.90
2023-05-13T09:52:51.364Z,4.25
2023-05-13T09:54:54.885Z,4.32
2023-05-13T09:57:00.061Z,4.35
2023-05-13T09:59:03.537Z,4.53
2023-05-13T10:01:10.234Z,4.15
2023-05-13T10:03:13.341Z,3.80
2023-05-13T10:05:16.793Z,4.22
2023-05-13T10:07:24.653Z,4.28
2023-05-13T10:09:29.193Z,4.30
2023-05-13T10:11:34.621Z,4.25
2023-05-13T10:13:38.382Z,4.10
2023-05-13T10:15:47.347Z,4.93
2023-05-13T10:17:50.588Z,4.35
2023-05-13T10:19:54.562Z,4.25
2023-05-13T10:21:58.544Z,4.10
2023-05-13T10:24:03.509Z,3.75
2023-05-13T10:26:08.299Z,3.60
2023-05-13T10:28:11.803Z,3.75
2023-05-13T10:30:16.340Z,3.70
2023-05-13T10:32:19.420Z,3.15
2023-05-13T10:34:25.951Z,4.03
2023-05-13T10:36:53.626Z,3.95
2023-05-13T10:39:20.503Z,3.92
2023-05-13T10:41:41.392Z,3.20
2023-05-13T10:43:44.482Z,3.80
2023-05-13T10:45:49.113Z,3.50
2023-05-13T10:47:52.746Z,3.25
2023-05-13T10:49:55.932Z,3.33
2023-05-13T10:52:05.375Z,3.17
2023-05-13T10:54:19.422Z,3.38
2023-05-13T10:56:24.286Z,3.38
2023-05-13T10:58:30.616Z,3.30
2023-05-13T11:00:35.042Z,3.10
2023-05-13T11:02:38.592Z,3.45
2023-05-13T11:04:59.327Z,4.00
2023-05-13T11:07:17.340Z,3.97
2023-05-13T11:09:32.453Z,9.45
2023-05-13T11:11:37.027Z,6.75
2023-05-13T11:13:40.441Z,3.80
2023-05-13T11:15:47.082Z,3.70
2023-05-13T11:17:55.038Z,3.50
2023-05-13T11:19:58.649Z,3.25
2023-05-13T11:22:07.201Z,3.55
2023-05-13T11:24:10.202Z,3.20
2023-05-13T11:26:17.237Z,4.07
2023-05-13T11:28:56.385Z,3.10
2023-05-13T11:31:16.633Z,4.03
2023-05-13T11:33:19.580Z,3.58
2023-05-13T11:35:23.146Z,3.53
2023-05-13T11:37:26.013Z,3.55
2023-05-13T11:39:29.057Z,3.60
2023-05-13T11:41:34.322Z,3.55
2023-05-13T11:43:40.715Z,3.28
2023-05-13T11:45:44.077Z,3.47
2023-05-13T11:47:47.333Z,3.10
2023-05-13T11:49:51.513Z,3.15
2023-05-13T11:51:54.536Z,3.20
2023-05-13T11:54:04.232Z,3.30
2023-05-13T11:56:11.347Z,3.15
2023-05-13T11:58:16.389Z,3.25
2023-05-13T12:00:20.096Z,3.63
2023-05-13T12:02:24.080Z,3.45
2023-05-13T12:04:29.515Z,3.50
2023-05-13T12:06:33.382Z,3.28
2023-05-13T12:08:36.642Z,3.05
2023-05-13T12:10:44.743Z,3.75
2023-05-13T12:12:47.993Z,3.00
2023-05-13T12:14:52.987Z,3.25
2023-05-13T12:16:57.430Z,3.08
2023-05-13T12:19:01.382Z,2.78
2023-05-13T12:21:16.022Z,2.92
2023-05-13T12:23:18.977Z,2.83
2023-05-13T12:25:41.775Z,3.38
2023-05-13T12:27:45.046Z,3.47
2023-05-13T12:29:48.004Z,3.38
2023-05-13T12:32:07.353Z,2.63
2023-05-13T12:34:10.369Z,3.33
2023-05-13T12:36:19.264Z,3.30
2023-05-13T12:38:25.087Z,2.80
2023-05-13T12:40:28.980Z,2.63
2023-05-13T12:42:31.983Z,3.00
2023-05-13T12:44:34.992Z,3.03
2023-05-13T12:46:40.691Z,2.50
2023-05-13T12:48:47.247Z,2.72
2023-05-13T12:50:51.462Z,2.80
2023-05-13T12:52:54.832Z,2.70
2023-05-13T12:54:57.769Z,2.47
2023-05-13T12:57:00.751Z,2.80
2023-05-13T12:59:03.676Z,2.80
2023-05-13T13:01:06.903Z,2.15
2023-05-13T13:03:10.188Z,2.80
2023-05-13T13:05:14.824Z,2.92
2023-05-13T13:07:17.770Z,2.80
2023-05-13T13:09:20.964Z,3.20
2023-05-13T13:15:05.693Z,2.40
2023-05-13T13:17:09.377Z,2.97
2023-05-13T13:19:12.785Z,2.97
2023-05-13T13:21:17.232Z,2.67
2023-05-13T13:23:20.464Z,2.70
2023-05-13T13:25:23.664Z,3.05
2023-05-13T13:27:26.983Z,2.67
2023-05-13T13:29:30.274Z,2.65
2023-05-13T13:31:33.321Z,2.42
2023-05-13T13:33:36.179Z,2.83
2023-05-13T13:35:39.301Z,2.85
2023-05-13T13:37:43.827Z,3.40
2023-05-13T13:39:46.966Z,2.95
2023-05-13T13:41:49.949Z,2.70
2023-05-13T13:43:52.977Z,2.60
2023-05-13T13:45:56.126Z,3.08
2023-05-13T13:48:00.132Z,2.63
2023-05-13T13:50:03.594Z,3.72
2023-05-13T13:52:06.708Z,3.88
2023-05-13T13:54:11.093Z,4.38
2023-05-13T13:56:14.098Z,3.90
2023-05-13T13:58:19.351Z,4.25
2023-05-13T14:00:22.523Z,3.50
2023-05-13T14:02:25.813Z,3.60
2023-05-13T14:04:30.263Z,4.07
2023-05-13T14:06:33.448Z,3.70
2023-05-13T14:08:37.197Z,4.20
2023-05-13T14:10:41.529Z,3.38
2023-05-13T14:12:44.436Z,3.80
2023-05-13T14:14:47.383Z,3.63
2023-05-13T14:16:50.394Z,2.95
2023-05-13T14:18:53.424Z,2.55
2023-05-13T14:20:56.763Z,2.67
2023-05-13T14:22:59.798Z,2.55
2023-05-13T14:25:02.686Z,3.75
2023-05-13T14:27:07.256Z,3.00
2023-05-13T14:29:10.199Z,2.60
2023-05-13T14:31:13.392Z,3.00
2023-05-13T14:33:16.553Z,2.58
2023-05-13T14:35:19.889Z,3.03
2023-05-13T14:37:22.984Z,2.50
2023-05-13T14:39:26.039Z,2.90
2023-05-13T14:41:29.900Z,3.13
2023-05-13T14:43:34.377Z,2.97
2023-05-13T14:45:40.103Z,3.45
2023-05-13T14:47:43.109Z,3.45
2023-05-13T14:49:46.308Z,2.85
2023-05-13T14:51:49.372Z,3.47
2023-05-13T14:53:53.270Z,3.28
2023-05-13T14:55:58.227Z,3.25
2023-05-13T14:58:01.283Z,3.28
2023-05-13T15:00:07.363Z,2.97
2023-05-13T15:02:10.419Z,3.20
2023-05-13T15:04:13.411Z,3.50
2023-05-13T15:06:16.545Z,3.00
2023-05-13T15:08:19.852Z,2.70
2023-05-13T15:10:23.159Z,3.13
2023-05-13T15:12:27.197Z,2.97
2023-05-13T15:14:30.243Z,3.20
2023-05-13T15:16:34.523Z,3.40
2023-05-13T15:18:37.628Z,2.08
2023-05-13T15:20:40.864Z,2.30
2023-05-13T15:22:44.390Z,2.88
2023-05-13T15:24:47.456Z,2.40
2023-05-13T15:26:50.790Z,2.88
2023-05-13T15:28:53.781Z,2.63
2023-05-13T15:30:57.504Z,2.70
2023-05-13T15:33:02.279Z,3.15
2023-05-13T15:35:05.994Z,2.83
2023-05-13T15:37:08.893Z,2.42
2023-05-13T15:39:12.044Z,2.50
2023-05-13T15:41:15.282Z,2.80
2023-05-13T15:43:18.696Z,2.63
2023-05-13T15:45:21.660Z,3.00
2023-05-13T15:47:24.954Z,3.33
2023-05-13T15:49:29.462Z,2.50
2023-05-13T15:51:33.233Z,2.45
2023-05-13T15:53:36.361Z,2.60
2023-05-13T15:55:39.525Z,2.20
2023-05-13T15:57:42.609Z,2.40
2023-05-13T15:59:45.765Z,2.85
2023-05-13T16:01:48.843Z,2.42
2023-05-13T16:03:52.691Z,2.55
2023-05-13T16:05:57.132Z,2.80
2023-05-13T16:08:00.428Z,3.15
2023-05-13T16:10:03.523Z,2.75
2023-05-13T16:12:07.233Z,2.55
2023-05-13T16:14:10.257Z,2.78
2023-05-13T16:16:13.292Z,2.40
2023-05-13T16:18:17.288Z,2.42
2023-05-13T16:20:20.919Z,2.70
2023-05-13T16:22:30.575Z,2.72
2023-05-13T16:24:33.602Z,2.53
2023-05-13T16:26:36.557Z,2.92
2023-05-13T16:28:39.840Z,2.90
2023-05-13T16:30:44.424Z,2.70
2023-05-13T16:32:53.007Z,2.90
2023-05-13T16:34:56.777Z,3.20
2023-05-13T16:36:59.918Z,2.60
2023-05-13T16:39:04.374Z,2.40
2023-05-13T16:41:07.278Z,2.85
2023-05-13T16:43:11.126Z,3.03
2023-05-13T16:45:14.618Z,3.05
2023-05-13T16:47:18.051Z,2.58
2023-05-13T16:49:21.216Z,2.60
2023-05-13T16:51:24.586Z,2.40
2023-05-13T16:53:27.540Z,2.40
2023-05-13T16:55:32.103Z,2.58
2023-05-13T16:57:35.622Z,3.08
2023-05-13T16:59:38.873Z,2.30
2023-05-13T17:01:43.880Z,2.22
2023-05-13T17:03:47.169Z,2.83
2023-05-13T17:05:50.558Z,2.33
2023-05-13T17:07:53.508Z,2.75
2023-05-13T17:09:56.751Z,2.17
2023-05-13T17:12:02.250Z,2.58
2023-05-13T17:14:05.875Z,2.33
2023-05-13T17:16:09.288Z,3.28
2023-05-13T17:18:13.383Z,3.08
2023-05-13T17:20:18.008Z,2.78
2023-05-13T17:22:21.351Z,2.72
2023-05-13T17:24:24.656Z,2.75
2023-05-13T17:26:27.920Z,3.35
2023-05-13T17:28:33.947Z,2.92
2023-05-13T17:30:37.313Z,2.55
2023-05-13T17:32:40.962Z,2.88
2023-05-13T17:34:44.213Z,2.80
2023-05-13T17:36:49.345Z,3.05
2023-05-13T17:38:53.187Z,2.80
2023-05-13T17:40:56.297Z,2.95
2023-05-13T17:43:03.649Z,2.88
2023-05-13T17:45:09.950Z,2.55
2023-05-13T17:47:13.107Z,3.50
2023-05-13T17:49:16.824Z,3.45
2023-05-13T17:51:20.116Z,2.70
2023-05-13T17:53:23.415Z,3.22
2023-05-13T17:55:26.519Z,5.38
2023-05-13T17:57:31.960Z,3.60
2023-05-13T17:59:35.208Z,3.33
2023-05-13T18:01:39.677Z,3.63
2023-05-13T18:03:42.690Z,3.42
2023-05-13T18:05:46.092Z,3.13
2023-05-13T18:07:49.194Z,4.75
2023-05-13T18:09:52.201Z,3.97
2023-05-13T18:11:55.268Z,3.55
2023-05-13T18:13:58.201Z,3.20
2023-05-13T18:16:01.439Z,3.08
2023-05-13T18:18:06.777Z,3.35
2023-05-13T18:20:10.708Z,3.20
2023-05-13T18:22:13.752Z,3.53
2023-05-13T18:24:16.797Z,3.50
2023-05-13T18:26:19.858Z,3.05
2023-05-13T18:28:23.372Z,2.92
2023-05-13T18:30:26.607Z,3.90
2023-05-13T18:32:29.575Z,2.97
2023-05-13T18:34:34.430Z,3.33
2023-05-13T18:36:37.398Z,3.60
2023-05-13T18:38:40.637Z,3.65
2023-05-13T18:40:43.637Z,3.75
2023-05-13T18:42:47.545Z,4.22
2023-05-13T18:44:50.579Z,5.45
2023-05-13T18:46:53.877Z,5.55
2023-05-13T18:48:57.112Z,5.40
2023-05-13T18:51:01.601Z,5.20
2023-05-13T18:53:04.557Z,5.95
2023-05-13T18:55:08.753Z,7.63
2023-05-13T18:57:12.288Z,11.38
2023-05-13T18:59:21.134Z,11.05
2023-05-13T19:01:24.468Z,13.43
2023-05-13T19:03:28.530Z,13.55
2023-05-13T19:05:31.526Z,12.55
2023-05-13T19:07:35.859Z,11.63
2023-05-13T19:09:38.803Z,11.63
2023-05-13T19:11:41.966Z,9.98
2023-05-13T19:13:47.649Z,10.15
2023-05-13T19:15:51.058Z,9.35
2023-05-13T19:17:54.472Z,10.23
2023-05-13T19:20:00.222Z,8.57
2023-05-13T19:22:03.762Z,8.95
2023-05-13T19:24:08.539Z,8.18
2023-05-13T19:26:11.654Z,9.52
2023-05-13T19:28:15.609Z,8.65
2023-05-13T19:30:18.772Z,9.05
2023-05-13T19:32:21.996Z,8.95
2023-05-13T19:34:25.248Z,6.78
2023-05-13T19:36:28.250Z,7.35
2023-05-13T19:38:31.349Z,7.80
2023-05-13T19:40:35.681Z,6.68
2023-05-13T19:42:39.997Z,6.82
2023-05-13T19:44:43.060Z,8.68
2023-05-13T19:46:46.841Z,7.18
2023-05-13T19:48:49.998Z,6.93
2023-05-13T19:50:53.519Z,8.52
2023-05-13T19:52:56.881Z,7.30
2023-05-13T19:54:59.977Z,9.05
2023-05-13T19:57:04.447Z,7.25
2023-05-13T19:59:07.687Z,8.93
2023-05-13T20:01:11.919Z,7.82
2023-05-13T20:03:15.188Z,7.72
2023-05-13T20:05:18.669Z,6.57
2023-05-13T20:07:21.561Z,7.10
2023-05-13T20:09:25.559Z,6.55
2023-05-13T20:11:28.686Z,6.80
2023-05-13T20:13:33.083Z,8.35
2023-05-13T20:15:36.046Z,8.25
2023-05-13T20:17:39.532Z,9.05
2023-05-13T20:19:43.499Z,9.55
2023-05-13T20:21:47.215Z,9.88
2023-05-13T20:23:50.342Z,11.68
2023-05-13T20:25:53.971Z,10.50
2023-05-13T20:27:56.964Z,9.75
2023-05-13T20:30:02.230Z,9.30
2023-05-13T20:32:06.479Z,10.20
2023-05-13T20:34:09.693Z,9.90
2023-05-13T20:36:13.058Z,9.98
2023-05-13T20:38:16.571Z,11.50
2023-05-13T20:40:20.287Z,10.10
2023-05-13T20:42:24.229Z,9.73
2023-05-13T20:44:27.320Z,10.02
2023-05-13T20:46:32.010Z,10.15
2023-05-13T20:48:35.544Z,8.73
2023-05-13T20:50:38.621Z,10.73
2023-05-13T20:52:41.712Z,8.77
2023-05-13T20:54:45.920Z,9.27
2023-05-13T20:56:49.146Z,11.02
2023-05-13T20:58:53.825Z,10.20
2023-05-13T21:00:57.655Z,10.85
2023-05-13T21:03:02.217Z,10.15
2023-05-13T21:05:05.683Z,11.43
2023-05-13T21:07:09.130Z,10.70
2023-05-13T21:09:12.088Z,9.10
2023-05-13T21:11:17.326Z,8.98
2023-05-13T21:13:20.465Z,8.75
2023-05-13T21:15:23.559Z,9.73
2023-05-13T21:17:26.748Z,8.90
2023-05-13T21:19:31.939Z,8.73
2023-05-13T21:21:37.786Z,8.38
2023-05-13T21:23:43.652Z,8.70
2023-05-13T21:25:46.825Z,7.90
2023-05-13T21:27:49.859Z,9.27
2023-05-13T21:29:53.000Z,7.80
2023-05-13T21:31:56.204Z,7.60
2023-05-13T21:33:59.549Z,8.60
2023-05-13T21:36:04.030Z,8.20
2023-05-13T21:38:12.030Z,7.40
2023-05-13T21:40:18.399Z,7.23
2023-05-13T21:42:21.736Z,7.63
2023-05-13T21:44:26.645Z,7.33
2023-05-13T21:46:29.803Z,8.10
2023-05-13T21:48:32.900Z,7.60
2023-05-13T21:50:37.275Z,8.00
2023-05-13T21:52:41.659Z,7.23
2023-05-13T21:54:44.740Z,7.57
2023-05-13T21:56:47.864Z,7.20
2023-05-13T21:58:52.994Z,6.90
2023-05-13T22:00:55.940Z,7.77
2023-05-13T22:03:00.510Z,7.70
2023-05-13T22:05:03.759Z,7.67
2023-05-13T22:07:07.321Z,8.50
2023-05-13T22:09:11.764Z,8.63
2023-05-13T22:11:15.161Z,10.43
2023-05-13T22:13:18.849Z,9.80
2023-05-13T22:15:22.083Z,9.23
2023-05-13T22:17:25.246Z,8.87
2023-05-13T22:19:29.156Z,7.90
2023-05-13T22:21:32.438Z,7.90
2023-05-13T22:23:35.546Z,8.03
2023-05-13T22:25:39.917Z,7.87
2023-05-13T22:27:43.601Z,8.43
2023-05-13T22:29:46.564Z,7.77
2023-05-13T22:31:50.831Z,8.30
2023-05-13T22:33:54.165Z,8.37
2023-05-13T22:35:57.050Z,8.37
2023-05-13T22:38:00.004Z,8.80
2023-05-13T22:40:03.050Z,8.57
2023-05-13T22:42:08.604Z,7.10
2023-05-13T22:44:11.863Z,7.87
2023-05-13T22:46:14.815Z,7.77
2023-05-13T22:48:17.764Z,7.80
2023-05-13T22:50:20.927Z,7.43
2023-05-13T22:52:27.557Z,8.20
2023-05-13T22:54:31.517Z,7.80
2023-05-13T22:56:34.422Z,7.30
2023-05-13T22:58:38.748Z,8.60
2023-05-13T23:00:41.898Z,9.67
2023-05-13T23:02:44.859Z,7.60
2023-05-13T23:04:48.071Z,8.13
2023-05-13T23:06:51.656Z,7.30
2023-05-13T23:08:56.733Z,8.50
2023-05-13T23:10:59.702Z,7.87
2023-05-13T23:13:05.894Z,9.20
2023-05-13T23:15:14.300Z,7.20
2023-05-13T23:17:17.474Z,9.40
2023-05-13T23:19:20.654Z,9.60
2023-05-13T23:21:23.684Z,8.83
2023-05-13T23:23:26.996Z,9.57
2023-05-13T23:25:30.109Z,7.60
2023-05-13T23:27:33.475Z,9.10
2023-05-13T23:29:36.561Z,8.00
2023-05-13T23:31:41.425Z,9.13
2023-05-13T23:33:44.522Z,8.10
2023-05-13T23:35:53.518Z,8.50
2023-05-13T23:37:56.678Z,8.73
2023-05-13T23:39:59.637Z,8.53
2023-05-13T23:42:02.548Z,8.30
2023-05-13T23:44:06.611Z,8.97
2023-05-13T23:46:09.595Z,9.17
2023-05-13T23:48:14.004Z,9.07
2023-05-13T23:50:17.009Z,8.40
2023-05-13T23:52:20.328Z,8.80
2023-05-13T23:54:23.286Z,8.67
2023-05-13T23:56:26.337Z,8.67
2023-05-13T23:58:29.567Z,8.23
